createdAt,value
2019-01-28T00:04:09.506Z,69.67
2019-01-28T00:10:15.226Z,69.54
2019-01-28T00:16:21.285Z,69.56
2019-01-28T00:22:27.157Z,69.60
2019-01-28T00:28:32.991Z,69.82
2019-01-28T00:34:39.063Z,70.03
2019-01-28T00:40:45.453Z,70.26
2019-01-28T00:46:51.636Z,70.47
2019-01-28T00:52:57.599Z,70.84
2019-01-28T00:59:03.522Z,70.86
2019-01-28T01:05:09.686Z,70.99
2019-01-28T01:11:15.843Z,70.96
2019-01-28T01:17:21.963Z,71.01
2019-01-28T01:23:27.714Z,70.75
2019-01-28T01:29:33.452Z,70.61
2019-01-28T01:35:39.260Z,70.27
2019-01-28T01:41:44.991Z,70.34
2019-01-28T01:47:50.982Z,70.39
2019-01-28T01:53:56.698Z,70.41
2019-01-28T02:00:03.418Z,70.45
2019-01-28T02:06:09.521Z,70.52
2019-01-28T02:12:15.748Z,70.73
2019-01-28T02:18:21.490Z,70.73
2019-01-28T02:24:27.553Z,70.88
2019-01-28T02:30:33.411Z,70.94
2019-01-28T02:36:39.150Z,70.75
2019-01-28T02:42:45.339Z,70.75
2019-01-28T02:48:51.063Z,71.04
2019-01-28T02:54:57.116Z,71.18
2019-01-28T03:01:02.865Z,71.38
2019-01-28T03:07:08.585Z,71.52
2019-01-28T03:13:14.392Z,71.78
2019-01-28T03:19:20.491Z,71.76
2019-01-28T03:25:26.616Z,71.69
2019-01-28T03:31:34.721Z,71.68
2019-01-28T03:37:40.542Z,71.73
2019-01-28T03:43:46.276Z,72.04
2019-01-28T03:49:52.093Z,72.18
2019-01-28T03:55:57.947Z,72.46
2019-01-28T04:02:04.020Z,72.48
2019-01-28T04:08:11.239Z,72.68
2019-01-28T04:14:17.011Z,72.69
2019-01-28T04:20:24.542Z,72.78
2019-01-28T04:26:30.568Z,72.78
2019-01-28T04:32:36.273Z,72.66
2019-01-28T04:38:42.198Z,72.74
2019-01-28T04:44:48.008Z,72.71
2019-01-28T04:50:53.953Z,72.67
2019-01-28T04:56:59.964Z,72.65
2019-01-28T05:03:05.912Z,72.56
2019-01-28T05:09:12.150Z,72.60
2019-01-28T05:15:18.703Z,72.61
2019-01-28T05:21:24.833Z,72.71
2019-01-28T05:27:30.591Z,72.93
2019-01-28T05:33:36.548Z,73.30
2019-01-28T05:39:42.306Z,73.48
2019-01-28T05:45:48.339Z,73.50
2019-01-28T05:51:57.528Z,73.47
2019-01-28T05:58:03.345Z,73.40
2019-01-28T06:04:09.875Z,73.07
2019-01-28T06:10:16.143Z,73.04
2019-01-28T06:16:22.153Z,73.03
2019-01-28T06:22:28.807Z,73.05
2019-01-28T06:28:34.848Z,73.06
2019-01-28T06:34:40.834Z,73.27
2019-01-28T06:40:46.832Z,73.53
2019-01-28T06:46:52.732Z,73.62
2019-01-28T06:52:58.447Z,73.68
2019-01-28T06:59:05.990Z,73.77
2019-01-28T07:05:12.262Z,74.01
2019-01-28T07:11:18.268Z,74.16
2019-01-28T07:17:24.306Z,74.21
2019-01-28T07:23:30.924Z,73.92
2019-01-28T07:29:37.118Z,73.99
2019-01-28T07:35:43.114Z,73.87
2019-01-28T07:41:49.099Z,73.94
2019-01-28T07:48:02.455Z,73.99
2019-01-28T07:54:03.228Z,74.13
2019-01-28T08:00:28.885Z,74.35
2019-01-28T08:06:35.448Z,74.88
2019-01-28T08:12:41.230Z,75.09
2019-01-28T08:18:47.212Z,75.35
2019-01-28T08:24:53.266Z,75.49
2019-01-28T08:30:59.415Z,75.74
2019-01-28T08:37:05.760Z,75.91
2019-01-28T08:43:11.665Z,76.15
2019-01-28T08:49:17.462Z,76.18
2019-01-28T08:55:25.243Z,75.56
2019-01-28T09:01:30.958Z,75.01
2019-01-28T09:07:37.082Z,74.63
2019-01-28T09:13:42.872Z,74.49
2019-01-28T09:19:48.839Z,73.91
2019-01-28T09:25:54.733Z,73.48
2019-01-28T09:32:00.492Z,72.51
2019-01-28T09:38:06.669Z,72.48
2019-01-28T09:44:12.773Z,72.66
2019-01-28T09:50:19.676Z,72.93
2019-01-28T09:56:25.538Z,71.91
2019-01-28T10:02:31.472Z,72.25
2019-01-28T10:08:37.412Z,73.18
2019-01-28T10:14:43.149Z,73.97
2019-01-28T10:20:53.245Z,74.61
2019-01-28T10:26:59.081Z,74.89
2019-01-28T10:33:05.953Z,74.10
2019-01-28T10:39:13.242Z,74.04
2019-01-28T10:45:19.300Z,74.64
2019-01-28T10:51:25.226Z,74.28
2019-01-28T10:57:31.025Z,74.19
2019-01-28T11:03:37.076Z,74.17
2019-01-28T11:09:43.089Z,74.12
2019-01-28T11:15:49.265Z,73.97
2019-01-28T11:21:55.379Z,73.90
2019-01-28T11:28:01.430Z,73.87
2019-01-28T11:34:07.718Z,73.51
2019-01-28T11:40:15.827Z,73.72
2019-01-28T11:46:22.175Z,73.49
2019-01-28T11:52:28.079Z,73.13
2019-01-28T11:58:33.975Z,73.08
2019-01-28T12:04:40.318Z,73.26
2019-01-28T12:10:46.136Z,73.37
2019-01-28T12:16:52.082Z,72.97
2019-01-28T12:22:57.846Z,73.02
2019-01-28T12:29:03.906Z,72.51
2019-01-28T12:35:11.266Z,73.06
2019-01-28T12:41:17.720Z,73.04
2019-01-28T12:47:23.744Z,73.49
2019-01-28T12:53:29.756Z,72.71
2019-01-28T12:59:43.113Z,72.54
2019-01-28T13:05:49.932Z,73.69
2019-01-28T13:11:57.495Z,74.57
2019-01-28T13:18:03.555Z,74.49
2019-01-28T13:24:09.766Z,73.91
2019-01-28T13:30:19.890Z,73.91
2019-01-28T13:36:25.801Z,74.00
2019-01-28T13:42:31.844Z,73.72
2019-01-28T13:48:37.739Z,74.22
2019-01-28T13:54:43.789Z,73.91
2019-01-28T14:00:50.158Z,73.97
2019-01-28T14:06:56.136Z,74.51
2019-01-28T14:13:02.217Z,75.55
2019-01-28T14:19:08.126Z,75.65
2019-01-28T14:25:16.316Z,75.24
2019-01-28T14:31:22.218Z,75.82
2019-01-28T14:37:28.316Z,75.62
2019-01-28T14:43:34.258Z,75.26
2019-01-28T14:49:40.127Z,75.41
2019-01-28T14:55:46.031Z,75.19
2019-01-28T15:01:51.852Z,74.99
2019-01-28T15:07:57.945Z,74.79
2019-01-28T15:14:04.220Z,74.31
2019-01-28T15:20:10.987Z,72.90
2019-01-28T15:26:16.800Z,72.96
2019-01-28T15:32:22.800Z,70.87
2019-01-28T15:38:28.727Z,70.37
2019-01-28T15:44:34.568Z,69.21
2019-01-28T15:50:40.836Z,69.68
2019-01-28T15:56:48.313Z,71.72
2019-01-28T16:02:54.222Z,71.93
2019-01-28T16:08:59.970Z,71.51
2019-01-28T16:15:09.804Z,70.64
2019-01-28T16:21:15.871Z,69.45
2019-01-28T16:27:26.561Z,66.67
2019-01-28T16:33:32.534Z,64.99
2019-01-28T16:39:38.395Z,64.09
2019-01-28T16:45:44.290Z,63.86
2019-01-28T16:51:56.606Z,63.18
2019-01-28T16:58:03.125Z,62.60
2019-01-28T17:04:11.144Z,61.76
2019-01-28T17:10:21.645Z,62.42
2019-01-28T17:16:27.645Z,62.19
2019-01-28T17:22:33.849Z,62.77
2019-01-28T17:28:40.220Z,62.97
2019-01-28T17:34:46.146Z,63.07
2019-01-28T17:40:53.456Z,63.27
2019-01-28T17:47:14.018Z,63.29
2019-01-28T17:53:20.008Z,63.79
2019-01-28T17:59:27.144Z,63.87
2019-01-28T18:05:35.139Z,64.19
2019-01-28T18:11:52.761Z,64.53
2019-01-28T18:17:58.703Z,64.24
2019-01-28T18:24:04.653Z,64.00
2019-01-28T18:30:16.765Z,63.93
2019-01-28T18:36:22.752Z,64.58
2019-01-28T18:42:28.835Z,65.22
2019-01-28T18:48:34.633Z,65.95
2019-01-28T18:54:40.605Z,66.44
2019-01-28T19:00:48.476Z,66.82
2019-01-28T19:07:15.021Z,66.97
2019-01-28T19:13:56.964Z,66.97
2019-01-28T19:20:21.835Z,66.96
2019-01-28T19:26:28.005Z,67.32
2019-01-28T19:32:36.773Z,67.21
2019-01-28T19:38:42.720Z,67.28
2019-01-28T19:44:48.599Z,67.27
2019-01-28T19:50:54.853Z,67.55
2019-01-28T19:57:00.787Z,68.19
2019-01-28T20:03:10.654Z,68.47
2019-01-28T20:09:17.123Z,68.57
2019-01-28T20:15:27.796Z,68.93
2019-01-28T20:21:34.233Z,68.78
2019-01-28T20:27:40.665Z,68.60
2019-01-28T20:33:46.886Z,68.63
2019-01-28T20:39:52.680Z,68.70
2019-01-28T20:45:58.523Z,68.64
2019-01-28T20:52:06.677Z,68.90
2019-01-28T20:58:12.797Z,69.06
2019-01-28T21:04:18.955Z,69.16
2019-01-28T21:10:25.656Z,69.20
2019-01-28T21:16:31.742Z,69.32
2019-01-28T21:22:37.853Z,69.57
2019-01-28T21:28:43.833Z,69.87
2019-01-28T21:34:49.992Z,70.01
2019-01-28T21:40:56.354Z,69.88
2019-01-28T21:47:02.868Z,69.92
2019-01-28T21:53:08.799Z,70.21
2019-01-28T21:59:14.719Z,70.43
2019-01-28T22:05:20.701Z,70.37
2019-01-28T22:11:28.185Z,70.33
2019-01-28T22:17:34.420Z,70.69
2019-01-28T22:23:40.368Z,70.62
2019-01-28T22:29:46.059Z,70.29
2019-01-28T22:35:51.942Z,69.99
2019-01-28T22:41:57.789Z,70.06
2019-01-28T22:48:03.799Z,69.96
2019-01-28T22:54:09.784Z,70.35
2019-01-28T23:00:53.213Z,70.60
2019-01-28T23:06:59.058Z,70.89
2019-01-28T23:13:05.508Z,70.92
2019-01-28T23:19:11.498Z,70.97
2019-01-28T23:25:17.320Z,70.88
2019-01-28T23:31:23.188Z,71.02
2019-01-28T23:37:29.359Z,71.26
2019-01-28T23:43:35.120Z,71.66
2019-01-28T23:49:41.355Z,71.88
2019-01-28T23:55:47.153Z,72.12
